sensor_id;sensor_type;location;lat;lon;timestamp;pressure;altitude;pressure_sealevel;temperature;humidity
70909;BME280;58554;52.006;5.926;2023-04-02T14:36:05;101651.00;;;15.75;47.66
70909;BME280;58554;52.006;5.926;2023-04-02T14:38:40;101651.22;;;14.73;49.08
70909;BME280;58554;52.006;5.926;2023-04-02T14:41:18;101651.72;;;13.73;48.37
70909;BME280;58554;52.006;5.926;2023-04-02T14:43:52;101657.13;;;12.89;49.18
70909;BME280;58554;52.006;5.926;2023-04-02T14:46:26;101661.97;;;12.28;48.54
70909;BME280;58554;52.006;5.926;2023-04-02T14:48:57;101659.09;;;11.79;50.26
70909;BME280;58554;52.006;5.926;2023-04-02T14:51:36;101653.75;;;11.43;50.81
70909;BME280;58554;52.006;5.926;2023-04-02T14:54:10;101674.69;;;11.09;50.86
70909;BME280;58554;52.006;5.926;2023-04-02T14:56:46;101665.56;;;10.75;50.45
70909;BME280;58554;52.006;5.926;2023-04-02T14:59:22;101671.75;;;10.54;51.81
70909;BME280;58554;52.006;5.926;2023-04-02T15:01:58;101666.28;;;10.38;52.51
70909;BME280;58554;52.006;5.926;2023-04-02T15:04:31;101671.34;;;10.22;52.28
70909;BME280;58554;52.006;5.926;2023-04-02T15:07:13;101680.16;;;10.01;51.47
70909;BME280;58554;52.006;5.926;2023-04-02T15:09:48;101673.81;;;9.83;52.36
70909;BME280;58554;52.006;5.926;2023-04-02T15:12:22;101676.03;;;9.71;52.92
70909;BME280;58554;52.006;5.926;2023-04-02T15:14:57;101686.94;;;9.62;52.41
70909;BME280;58554;52.006;5.926;2023-04-02T15:17:29;101689.13;;;9.51;52.44
70909;BME280;58554;52.006;5.926;2023-04-02T15:20:04;101694.88;;;9.39;52.84
70909;BME280;58554;52.006;5.926;2023-04-02T17:41:22;101838.59;;;6.16;60.95
70909;BME280;58554;52.006;5.926;2023-04-02T17:44:01;101837.50;;;6.26;60.91
70909;BME280;58554;52.006;5.926;2023-04-02T17:46:41;101847.78;;;6.35;61.20
70909;BME280;58554;52.006;5.926;2023-04-02T17:49:21;101848.56;;;6.42;61.01
70909;BME280;58554;52.006;5.926;2023-04-02T17:52:01;101849.25;;;6.48;61.34
70909;BME280;58554;52.006;5.926;2023-04-02T17:54:42;101858.81;;;6.53;61.49
70909;BME280;58554;52.006;5.926;2023-04-02T17:57:37;101866.66;;;6.54;61.73
70909;BME280;58554;52.006;5.926;2023-04-02T18:00:37;101872.78;;;6.55;61.81
70909;BME280;58554;52.006;5.926;2023-04-02T18:03:25;101877.13;;;6.56;62.02
70909;BME280;58554;52.006;5.926;2023-04-02T18:06:15;101879.72;;;6.57;62.08
70909;BME280;58554;52.006;5.926;2023-04-02T18:08:56;101882.47;;;6.53;62.22
70909;BME280;58554;52.006;5.926;2023-04-02T18:11:41;101885.34;;;6.40;62.38
70909;BME280;58554;52.006;5.926;2023-04-02T18:14:35;101896.09;;;6.29;62.38
70909;BME280;58554;52.006;5.926;2023-04-02T18:17:20;101895.50;;;6.17;62.92
70909;BME280;58554;52.006;5.926;2023-04-02T18:19:59;101908.81;;;6.07;62.98
70909;BME280;58554;52.006;5.926;2023-04-02T18:22:39;101907.25;;;5.97;63.05
70909;BME280;58554;52.006;5.926;2023-04-02T18:25:28;101910.00;;;5.89;63.28
70909;BME280;58554;52.006;5.926;2023-04-02T18:28:14;101918.91;;;5.82;63.54
70909;BME280;58554;52.006;5.926;2023-04-02T18:30:57;101919.94;;;5.75;63.72
70909;BME280;58554;52.006;5.926;2023-04-02T18:33:38;101919.16;;;5.68;63.99
70909;BME280;58554;52.006;5.926;2023-04-02T18:36:22;101920.19;;;5.61;64.09
70909;BME280;58554;52.006;5.926;2023-04-02T18:39:07;101922.06;;;5.55;64.00
70909;BME280;58554;52.006;5.926;2023-04-02T18:41:48;101931.81;;;5.48;63.92
70909;BME280;58554;52.006;5.926;2023-04-02T18:44:37;101926.69;;;5.39;64.30
70909;BME280;58554;52.006;5.926;2023-04-02T18:47:27;101932.97;;;5.30;64.52
70909;BME280;58554;52.006;5.926;2023-04-02T18:50:12;101935.72;;;5.22;64.50
70909;BME280;58554;52.006;5.926;2023-04-02T18:52:43;101948.06;;;5.16;64.51
70909;BME280;58554;52.006;5.926;2023-04-02T18:55:14;101937.69;;;5.08;64.79
70909;BME280;58554;52.006;5.926;2023-04-02T18:57:45;101952.63;;;5.03;64.81
70909;BME280;58554;52.006;5.926;2023-04-02T19:00:24;101947.50;;;4.95;64.90
70909;BME280;58554;52.006;5.926;2023-04-02T19:03:01;101955.38;;;4.91;65.04
70909;BME280;58554;52.006;5.926;2023-04-02T19:05:39;101958.97;;;4.85;65.53
70909;BME280;58554;52.006;5.926;2023-04-02T19:08:15;101969.50;;;4.80;65.40
70909;BME280;58554;52.006;5.926;2023-04-02T19:10:47;101963.50;;;4.75;65.33
70909;BME280;58554;52.006;5.926;2023-04-02T19:13:19;101970.53;;;4.70;65.42
70909;BME280;58554;52.006;5.926;2023-04-02T19:15:57;101976.69;;;4.66;65.89
70909;BME280;58554;52.006;5.926;2023-04-02T19:18:51;101971.53;;;4.60;66.06
70909;BME280;58554;52.006;5.926;2023-04-02T19:21:33;101984.69;;;4.57;66.08
70909;BME280;58554;52.006;5.926;2023-04-02T19:24:23;101990.00;;;4.52;66.21
70909;BME280;58554;52.006;5.926;2023-04-02T19:27:06;101990.88;;;4.50;66.25
70909;BME280;58554;52.006;5.926;2023-04-02T19:29:52;101990.91;;;4.46;66.29
70909;BME280;58554;52.006;5.926;2023-04-02T19:32:33;101996.19;;;4.43;66.47
70909;BME280;58554;52.006;5.926;2023-04-02T19:35:16;102001.47;;;4.39;66.71
70909;BME280;58554;52.006;5.926;2023-04-02T19:37:56;102004.16;;;4.34;66.72
70909;BME280;58554;52.006;5.926;2023-04-02T19:40:38;102004.16;;;4.33;66.65
70909;BME280;58554;52.006;5.926;2023-04-02T19:43:12;102011.19;;;4.29;66.79
70909;BME280;58554;52.006;5.926;2023-04-02T19:45:40;102013.00;;;4.25;66.72
70909;BME280;58554;52.006;5.926;2023-04-02T19:48:12;102019.13;;;4.21;66.80
70909;BME280;58554;52.006;5.926;2023-04-02T19:50:47;102012.19;;;4.19;67.12
70909;BME280;58554;52.006;5.926;2023-04-02T19:53:15;102015.72;;;4.15;67.26
70909;BME280;58554;52.006;5.926;2023-04-02T19:55:42;102025.34;;;4.11;67.20
70909;BME280;58554;52.006;5.926;2023-04-02T19:58:17;102030.59;;;4.10;67.39
70909;BME280;58554;52.006;5.926;2023-04-02T20:00:51;102035.88;;;4.06;67.45
70909;BME280;58554;52.006;5.926;2023-04-02T20:03:17;102036.75;;;4.05;67.34
70909;BME280;58554;52.006;5.926;2023-04-02T20:05:47;102039.41;;;4.02;67.40
70909;BME280;58554;52.006;5.926;2023-04-02T20:08:13;102035.94;;;3.99;67.51
70909;BME280;58554;52.006;5.926;2023-04-02T20:10:41;102033.34;;;3.96;67.74
70909;BME280;58554;52.006;5.926;2023-04-02T20:13:09;102043.84;;;3.94;67.86
70909;BME280;58554;52.006;5.926;2023-04-02T20:15:38;102043.84;;;3.91;67.92
70909;BME280;58554;52.006;5.926;2023-04-02T20:18:04;102039.53;;;3.87;67.82
70909;BME280;58554;52.006;5.926;2023-04-02T20:20:31;102037.81;;;3.83;67.97
70909;BME280;58554;52.006;5.926;2023-04-02T20:23:01;102039.63;;;3.79;68.23
70909;BME280;58554;52.006;5.926;2023-04-02T20:25:27;102050.09;;;3.75;68.05
70909;BME280;58554;52.006;5.926;2023-04-02T20:27:54;102050.13;;;3.72;68.32
70909;BME280;58554;52.006;5.926;2023-04-02T20:30:20;102052.75;;;3.72;68.55
70909;BME280;58554;52.006;5.926;2023-04-02T20:32:47;102061.47;;;3.71;68.46
70909;BME280;58554;52.006;5.926;2023-04-02T20:35:13;102060.63;;;3.67;68.50
70909;BME280;58554;52.006;5.926;2023-04-02T20:37:40;102056.28;;;3.64;68.62
70909;BME280;58554;52.006;5.926;2023-04-02T20:40:10;102068.53;;;3.61;68.54
70909;BME280;58554;52.006;5.926;2023-04-02T20:42:36;102071.19;;;3.56;68.61
70909;BME280;58554;52.006;5.926;2023-04-02T20:45:04;102067.72;;;3.51;68.82
70909;BME280;58554;52.006;5.926;2023-04-02T20:47:32;102080.84;;;3.48;69.07
70909;BME280;58554;52.006;5.926;2023-04-02T20:49:58;102073.88;;;3.44;69.14
70909;BME280;58554;52.006;5.926;2023-04-02T20:52:27;102074.78;;;3.38;69.14
70909;BME280;58554;52.006;5.926;2023-04-02T20:54:53;102080.91;;;3.33;69.18
70909;BME280;58554;52.006;5.926;2023-04-02T20:57:23;102074.84;;;3.28;69.40
70909;BME280;58554;52.006;5.926;2023-04-02T20:59:49;102091.44;;;3.23;69.54
70909;BME280;58554;52.006;5.926;2023-04-02T21:02:16;102093.19;;;3.23;69.72
70909;BME280;58554;52.006;5.926;2023-04-02T21:04:42;102094.94;;;3.21;69.85
70909;BME280;58554;52.006;5.926;2023-04-02T21:07:09;102101.94;;;3.19;70.10
70909;BME280;58554;52.006;5.926;2023-04-02T21:09:35;102098.44;;;3.15;70.07
70909;BME280;58554;52.006;5.926;2023-04-02T21:12:02;102107.16;;;3.14;70.08
70909;BME280;58554;52.006;5.926;2023-04-02T21:14:31;102106.31;;;3.09;70.20
70909;BME280;58554;52.006;5.926;2023-04-02T21:16:58;102105.44;;;3.05;70.37
70909;BME280;58554;52.006;5.926;2023-04-02T21:19:24;102116.78;;;3.01;70.19
70909;BME280;58554;52.006;5.926;2023-04-02T21:21:53;102111.59;;;2.97;70.39
70909;BME280;58554;52.006;5.926;2023-04-02T21:24:19;102111.63;;;2.94;70.25
70909;BME280;58554;52.006;5.926;2023-04-02T21:26:46;102107.28;;;2.90;70.48
70909;BME280;58554;52.006;5.926;2023-04-02T21:29:12;102116.88;;;2.88;70.41
70909;BME280;58554;52.006;5.926;2023-04-02T21:31:42;102118.63;;;2.84;70.61
70909;BME280;58554;52.006;5.926;2023-04-02T21:34:12;102124.72;;;2.81;70.75
70909;BME280;58554;52.006;5.926;2023-04-02T21:36:42;102127.31;;;2.78;70.79
70909;BME280;58554;52.006;5.926;2023-04-02T21:39:14;102128.22;;;2.77;70.89
70909;BME280;58554;52.006;5.926;2023-04-02T21:41:43;102128.22;;;2.73;70.68
70909;BME280;58554;52.006;5.926;2023-04-02T21:44:13;102127.38;;;2.69;70.79
70909;BME280;58554;52.006;5.926;2023-04-02T21:46:44;102127.34;;;2.66;70.84
70909;BME280;58554;52.006;5.926;2023-04-02T21:49:13;102130.88;;;2.65;71.10
70909;BME280;58554;52.006;5.926;2023-04-02T21:51:43;102125.66;;;2.60;71.08
70909;BME280;58554;52.006;5.926;2023-04-02T21:54:11;102136.09;;;2.57;71.17
70909;BME280;58554;52.006;5.926;2023-04-02T21:56:39;102137.81;;;2.54;71.03
70909;BME280;58554;52.006;5.926;2023-04-02T21:59:08;102138.72;;;2.50;71.14
70909;BME280;58554;52.006;5.926;2023-04-02T22:01:38;102146.56;;;2.45;71.43
70909;BME280;58554;52.006;5.926;2023-04-02T22:04:10;102144.81;;;2.42;71.33
70909;BME280;58554;52.006;5.926;2023-04-02T22:06:41;102142.19;;;2.39;71.27
70909;BME280;58554;52.006;5.926;2023-04-02T22:09:11;102141.34;;;2.34;71.47
70909;BME280;58554;52.006;5.926;2023-04-02T22:11:42;102140.47;;;2.32;71.48
70909;BME280;58554;52.006;5.926;2023-04-02T22:14:11;102142.22;;;2.30;71.61
70909;BME280;58554;52.006;5.926;2023-04-02T22:16:38;102142.25;;;2.27;71.75
70909;BME280;58554;52.006;5.926;2023-04-02T22:19:11;102142.25;;;2.21;71.75
70909;BME280;58554;52.006;5.926;2023-04-02T22:21:39;102138.75;;;2.16;71.94
70909;BME280;58554;52.006;5.926;2023-04-02T22:24:10;102147.47;;;2.15;71.84
70909;BME280;58554;52.006;5.926;2023-04-02T22:26:39;102143.97;;;2.13;71.96
70909;BME280;58554;52.006;5.926;2023-04-02T22:29:06;102144.84;;;2.12;72.03
70909;BME280;58554;52.006;5.926;2023-04-02T22:31:33;102151.78;;;2.10;72.25
70909;BME280;58554;52.006;5.926;2023-04-02T22:34:01;102149.19;;;2.07;72.26
70909;BME280;58554;52.006;5.926;2023-04-02T22:36:32;102150.91;;;2.01;72.14
70909;BME280;58554;52.006;5.926;2023-04-02T22:39:00;102155.25;;;1.99;72.44
70909;BME280;58554;52.006;5.926;2023-04-02T22:41:28;102145.69;;;1.95;72.31
70909;BME280;58554;52.006;5.926;2023-04-02T22:43:55;102151.78;;;1.93;72.58
70909;BME280;58554;52.006;5.926;2023-04-02T22:46:24;102157.00;;;1.88;72.64
70909;BME280;58554;52.006;5.926;2023-04-02T22:48:53;102157.88;;;1.84;72.52
70909;BME280;58554;52.006;5.926;2023-04-02T22:51:21;102159.59;;;1.80;72.90
70909;BME280;58554;52.006;5.926;2023-04-02T22:53:53;102153.53;;;1.75;72.94
70909;BME280;58554;52.006;5.926;2023-04-02T22:56:22;102159.56;;;1.73;72.82
70909;BME280;58554;52.006;5.926;2023-04-02T22:58:50;102158.72;;;1.72;73.09
70909;BME280;58554;52.006;5.926;2023-04-02T23:01:19;102156.97;;;1.68;72.89
70909;BME280;58554;52.006;5.926;2023-04-02T23:03:47;102160.44;;;1.67;72.97
70909;BME280;58554;52.006;5.926;2023-04-02T23:06:16;102162.19;;;1.63;73.27
70909;BME280;58554;52.006;5.926;2023-04-02T23:08:43;102170.00;;;1.62;73.28
70909;BME280;58554;52.006;5.926;2023-04-02T23:11:15;102169.13;;;1.60;73.31
70909;BME280;58554;52.006;5.926;2023-04-02T23:13:43;102169.13;;;1.58;73.34
70909;BME280;58554;52.006;5.926;2023-04-02T23:16:12;102169.97;;;1.53;73.26
70909;BME280;58554;52.006;5.926;2023-04-02T23:18:41;102169.97;;;1.53;73.40
70909;BME280;58554;52.006;5.926;2023-04-02T23:21:09;102166.47;;;1.49;73.39
70909;BME280;58554;52.006;5.926;2023-04-02T23:23:35;102176.03;;;1.47;73.35
70909;BME280;58554;52.006;5.926;2023-04-02T23:26:04;102174.28;;;1.43;73.64
70909;BME280;58554;52.006;5.926;2023-04-02T23:28:35;102174.28;;;1.40;73.46
70909;BME280;58554;52.006;5.926;2023-04-02T23:31:05;102180.34;;;1.39;73.56
70909;BME280;58554;52.006;5.926;2023-04-02T23:33:33;102175.13;;;1.36;73.82
70909;BME280;58554;52.006;5.926;2023-04-02T23:36:05;102175.13;;;1.33;73.60
70909;BME280;58554;52.006;5.926;2023-04-02T23:38:33;102177.69;;;1.31;73.62
70909;BME280;58554;52.006;5.926;2023-04-02T23:40:59;102179.47;;;1.29;73.85
70909;BME280;58554;52.006;5.926;2023-04-02T23:43:26;102182.06;;;1.28;73.66
70909;BME280;58554;52.006;5.926;2023-04-02T23:45:55;102171.59;;;1.25;73.87
70909;BME280;58554;52.006;5.926;2023-04-02T23:48:22;102175.09;;;1.23;73.97
70909;BME280;58554;52.006;5.926;2023-04-02T23:50:49;102178.53;;;1.19;73.84
70909;BME280;58554;52.006;5.926;2023-04-02T23:53:15;102181.13;;;1.18;73.80
70909;BME280;58554;52.006;5.926;2023-04-02T23:55:42;102188.06;;;1.16;73.88
70909;BME280;58554;52.006;5.926;2023-04-02T23:58:08;102188.94;;;1.15;73.98
